Portada
METAR-TAF:

METAR-TAF

Aeroports :

San José del Cabo, Mèxic

latitud: 23-09N, longitud: 109-42W, altitud: 109 m

Observació

L'informe es va fer fa 8 hores i 42 minuts, a les 02:40 UTC
Vent calma
Temperatura 28°C
Humitat 70%
Pressió 1012 hPa
Visibilitat: 12.9 km
Cel clar

METAR: MMSD 230240Z 00000KT 8SM SKC 28/22 A2987 RMK SLP099 52012 921 SC

Hora: 05:22 (11:22 UTC)

Pronòstic

L'informe es va fer fa 8 hores i 10 minuts, a les 03:12 UTC
Pronòstic vàlid del 23 a les 06 UTC al 24 a les 06 UTC
Vent kt del Nord
Visibilitat: 10 km
Cel clar
A partir de les 23 a les 1800 UTC
Vent 10 kt del Sud-Est
Visibilitat: 10 km
Núvols disperses a una alçada de 3000 ft
Núvols disperses a una alçada de 25000 ft
A partir de les 24 a les 0500 UTC
Vent kt del Nord
Visibilitat: 10 km
Cel clar

TAF: MMSD 230312Z 2306/2406 00000KT P6SM SKC FM231800 14010KT P6SM SCT030 SCT250 FM240500 00000KT P6SM SKC

Observacions i pronòstics meteorològics de més de 4000 aeroports (METAR i TAF).

Les estacions disponibles són els punts grocs i vermells al mapa.

Posi el ratolí al punt desitjat per veure el nom de l'estació.

Feu clic per veure les observacions i els pronòstics meteorològics.

Per canviar el mapa: feu clic els botons verds amb una creu de color negre per apropar; al botó verd amb un guió per allunyar la imatge; o en les fletxes verdes per a mapes adjacents.


METAR-TAF: